메인 페이지
METAR-TAF:

METAR-TAF

공항 :

Northeast Philadelphia Airport

필라델피아, 펜실베이니아, 미국

위도: 40-04-44N, 경도: 075-00-49W, 고도: 36m

현재 날씨관측

예보는 1 시간 6분 전, 09:54시(UTC)에 발표되었습니다.
서남서5kt
온도 0°C
습도 64%
기압 1017 hPa
시정: 16.1km
맑음

METAR: KPNE 030954Z AUTO 25005KT 10SM CLR 00/M06 A3002 RMK AO2 SLP166 T00001056

시각: 06:00 (11:00 UTC)

예보

예보는 5 시간 35분 전, 05:25시(UTC)에 발표되었습니다.
예보 대상 시간: 03일 06시부터 04일 06시까지 (UTC)
남서4kt
시정: 10km
맑음
03일 1400시부터 (UTC)
10kt
시정: 10km
맑음
03일 2200시부터 (UTC)
5kt
시정: 10km
고도 25000ft 상공 구름 조금

TAF: KPNE 030525Z 0306/0406 22004KT P6SM SKC FM031400 27010KT P6SM SKC FM032200 26005KT P6SM FEW250

4,000개 이상의 공항 관측 자료 및 예보 (METAR 및 TAF 보고).

지도상에서 검색 가능한 기상관측소가 노란 점과 빨간 점으로 표시되어 있습니다.

기상관측소 명을 보려면 표시 위로 마우스를 이동하세요.

날씨 관측과 예보를 보려면 클릭하세요.

지도 변경 : 확대하려면 엑스 표시가 있는 녹색 버튼, 축소하려면 빼기 표시가 있는 녹색 버튼, 다음 페이지의 지도를 보려면 녹색 화살표를 클릭하세요.


METAR-TAF: